createdAt,value
2018-06-12T00:05:03.030Z,99.90
2018-06-12T00:11:08.755Z,99.90
2018-06-12T00:17:14.579Z,99.90
2018-06-12T00:23:20.439Z,99.90
2018-06-12T00:29:26.221Z,99.90
2018-06-12T00:35:31.961Z,99.90
2018-06-12T00:41:37.928Z,99.90
2018-06-12T00:47:43.601Z,99.90
2018-06-12T00:53:49.854Z,99.90
2018-06-12T00:59:56.319Z,99.90
2018-06-12T01:06:02.052Z,99.90
2018-06-12T01:12:07.921Z,99.90
2018-06-12T01:18:13.544Z,99.90
2018-06-12T01:24:19.209Z,99.90
2018-06-12T01:30:25.446Z,99.90
2018-06-12T01:36:31.128Z,99.90
2018-06-12T01:42:36.776Z,99.90
2018-06-12T01:48:42.413Z,99.90
2018-06-12T01:54:48.048Z,99.90
2018-06-12T02:00:54.249Z,99.90
2018-06-12T02:06:59.911Z,99.90
2018-06-12T02:19:44.731Z,99.90
2018-06-12T02:25:50.461Z,99.90
2018-06-12T02:31:56.261Z,99.90
2018-06-12T02:38:01.944Z,99.90
2018-06-12T02:44:07.600Z,99.90
2018-06-12T02:50:13.233Z,99.90
2018-06-12T02:56:18.935Z,99.90
2018-06-12T03:02:25.681Z,99.90
2018-06-12T03:08:31.516Z,99.90
2018-06-12T03:14:37.320Z,99.90
2018-06-12T03:20:46.747Z,99.90
2018-06-12T03:26:52.789Z,99.90
2018-06-12T03:32:58.518Z,99.90
2018-06-12T03:39:06.397Z,99.90
2018-06-12T03:45:12.003Z,99.90
2018-06-12T03:51:17.779Z,99.90
2018-06-12T03:57:24.482Z,99.90
2018-06-12T04:03:30.272Z,99.90
2018-06-12T04:09:35.949Z,99.90
2018-06-12T04:15:41.783Z,99.90
2018-06-12T04:21:47.969Z,99.90
2018-06-12T04:27:53.933Z,99.90
2018-06-12T04:33:59.683Z,99.90
2018-06-12T04:40:05.446Z,99.90
2018-06-12T04:46:11.097Z,99.90
2018-06-12T04:52:16.855Z,99.90
2018-06-12T04:58:23.304Z,99.90
2018-06-12T05:04:28.947Z,99.90
2018-06-12T05:10:34.593Z,99.90
2018-06-12T05:16:40.311Z,99.90
2018-06-12T05:22:45.945Z,99.90
2018-06-12T05:28:53.089Z,99.90
2018-06-12T05:34:58.726Z,99.90
2018-06-12T05:41:04.392Z,99.90
2018-06-12T05:47:10.028Z,99.90
2018-06-12T05:53:15.778Z,99.90
2018-06-12T06:05:27.499Z,99.90
2018-06-12T06:11:33.228Z,99.90
2018-06-12T06:17:39.093Z,99.90
2018-06-12T06:23:44.891Z,99.90
2018-06-12T06:29:50.650Z,99.90
2018-06-12T06:35:56.685Z,99.90
2018-06-12T06:42:02.415Z,99.90
2018-06-12T06:48:08.196Z,99.90
2018-06-12T06:54:14.005Z,99.90
2018-06-12T07:00:19.779Z,99.90
2018-06-12T07:06:26.044Z,99.90
2018-06-12T07:12:31.653Z,99.70
2018-06-12T07:18:37.364Z,99.90
2018-06-12T07:24:42.991Z,99.90
2018-06-12T07:30:48.645Z,99.90
2018-06-12T07:36:54.768Z,99.90
2018-06-12T07:43:00.372Z,99.90
2018-06-12T07:49:06.159Z,99.90
2018-06-12T07:55:11.866Z,99.90
2018-06-12T08:01:17.591Z,99.90
2018-06-12T08:07:23.844Z,99.90
2018-06-12T08:13:29.613Z,98.00
2018-06-12T08:19:35.309Z,99.00
2018-06-12T08:25:40.984Z,97.80
2018-06-12T08:31:46.660Z,97.30
2018-06-12T08:37:52.822Z,97.40
2018-06-12T08:43:58.708Z,97.30
2018-06-12T08:50:04.485Z,97.30
2018-06-12T08:56:10.117Z,97.00
2018-06-12T09:02:15.770Z,98.10
2018-06-12T09:08:21.400Z,96.40
2018-06-12T09:14:27.416Z,96.50
2018-06-12T09:20:33.009Z,96.90
2018-06-12T09:26:38.629Z,96.20
2018-06-12T09:32:44.259Z,96.80
2018-06-12T09:44:55.835Z,95.40
2018-06-12T09:51:01.451Z,95.50
2018-06-12T09:57:07.332Z,93.20
2018-06-12T10:03:12.940Z,93.20
2018-06-12T10:09:18.898Z,91.70
2018-06-12T10:15:24.725Z,92.50
2018-06-12T10:21:30.382Z,91.70
2018-06-12T10:27:36.111Z,87.80
2018-06-12T10:33:41.870Z,88.20
2018-06-12T10:39:47.578Z,82.90
2018-06-12T10:45:54.412Z,85.20
2018-06-12T10:52:00.035Z,84.50
2018-06-12T10:58:05.660Z,82.40
2018-06-12T11:04:11.254Z,76.80
2018-06-12T11:10:17.025Z,78.90
2018-06-12T11:16:23.973Z,78.00
2018-06-12T11:22:29.668Z,75.60
2018-06-12T11:28:35.320Z,79.30
2018-06-12T11:34:41.265Z,82.50
2018-06-12T11:40:46.856Z,83.00
2018-06-12T11:46:53.108Z,82.00
2018-06-12T11:52:58.811Z,83.00
2018-06-12T11:59:04.630Z,84.70
2018-06-12T12:05:10.456Z,83.90
2018-06-12T12:11:16.235Z,87.10
2018-06-12T12:17:22.467Z,89.80
2018-06-12T12:23:28.389Z,88.60
2018-06-12T12:29:33.992Z,90.00
2018-06-12T12:35:39.604Z,87.00
2018-06-12T12:41:45.289Z,82.60
2018-06-12T12:47:51.129Z,86.90
2018-06-12T12:53:56.914Z,88.60
2018-06-12T13:00:02.536Z,89.50
2018-06-12T13:06:08.319Z,90.10
2018-06-12T13:12:13.969Z,90.70
2018-06-12T13:18:19.691Z,88.20
2018-06-12T13:24:25.860Z,84.70
2018-06-12T13:30:31.596Z,89.00
2018-06-12T13:36:37.377Z,89.60
2018-06-12T13:42:43.004Z,80.90
2018-06-12T13:48:48.689Z,83.10
2018-06-12T13:54:54.977Z,81.30
2018-06-12T14:01:01.466Z,81.90
2018-06-12T14:07:07.089Z,83.40
2018-06-12T14:13:12.715Z,85.30
2018-06-12T14:19:18.353Z,83.10
2018-06-12T14:25:24.989Z,84.20
2018-06-12T14:31:31.127Z,84.80
2018-06-12T14:37:36.878Z,87.00
2018-06-12T14:43:42.625Z,87.70
2018-06-12T14:49:48.589Z,88.40
2018-06-12T14:55:55.667Z,84.00
2018-06-12T15:02:01.349Z,80.80
2018-06-12T15:08:07.051Z,81.40
2018-06-12T15:14:12.858Z,86.60
2018-06-12T15:20:18.568Z,87.20
2018-06-12T15:26:25.319Z,88.80
2018-06-12T15:32:30.948Z,89.60
2018-06-12T15:38:36.840Z,90.10
2018-06-12T15:44:42.569Z,90.90
2018-06-12T15:50:48.329Z,91.10
2018-06-12T15:56:54.457Z,89.50
2018-06-12T16:03:00.175Z,91.00
2018-06-12T16:09:12.494Z,90.30
2018-06-12T16:15:18.129Z,90.50
2018-06-12T16:21:24.700Z,87.40
2018-06-12T16:27:30.452Z,89.30
2018-06-12T16:33:36.147Z,89.70
2018-06-12T16:39:41.765Z,91.20
2018-06-12T16:45:47.341Z,90.60
2018-06-12T16:51:53.860Z,90.20
2018-06-12T16:57:59.522Z,91.10
2018-06-12T17:04:05.214Z,90.90
2018-06-12T17:10:11.034Z,91.50
2018-06-12T17:16:16.698Z,91.70
2018-06-12T17:22:23.013Z,91.30
2018-06-12T17:28:28.790Z,91.90
2018-06-12T17:34:34.810Z,92.30
2018-06-12T17:40:40.463Z,92.30
2018-06-12T17:46:46.162Z,92.40
2018-06-12T17:52:52.393Z,92.30
2018-06-12T17:58:58.096Z,93.30
2018-06-12T18:05:03.800Z,93.90
2018-06-12T18:11:10.041Z,94.80
2018-06-12T18:17:15.817Z,94.70
2018-06-12T18:23:21.846Z,94.70
2018-06-12T18:29:27.498Z,95.40
2018-06-12T18:35:33.276Z,95.50
2018-06-12T18:41:39.005Z,95.50
2018-06-12T18:47:45.065Z,95.90
2018-06-12T18:53:50.732Z,96.40
2018-06-12T18:59:56.577Z,96.80
2018-06-12T19:06:02.396Z,97.10
2018-06-12T19:12:08.090Z,97.50
2018-06-12T19:18:13.916Z,98.10
2018-06-12T19:24:20.141Z,98.20
2018-06-12T19:30:26.102Z,98.80
2018-06-12T19:36:31.723Z,98.70
2018-06-12T19:42:37.441Z,98.80
2018-06-12T19:48:43.077Z,99.10
2018-06-12T19:54:49.194Z,99.40
2018-06-12T20:00:55.797Z,99.80
2018-06-12T20:07:01.458Z,99.90
2018-06-12T20:13:07.296Z,99.50
2018-06-12T20:19:13.022Z,99.60
2018-06-12T20:25:19.872Z,99.40
2018-06-12T20:31:26.372Z,99.70
2018-06-12T20:37:32.093Z,99.90
2018-06-12T20:43:37.845Z,99.90
2018-06-12T20:49:43.640Z,99.90
2018-06-12T20:55:49.427Z,99.90
2018-06-12T21:01:56.335Z,99.90
2018-06-12T21:08:02.114Z,99.90
2018-06-12T21:14:07.803Z,99.90
2018-06-12T21:20:13.563Z,99.90
2018-06-12T21:26:20.089Z,99.90
2018-06-12T21:32:25.785Z,99.90
2018-06-12T21:38:31.452Z,99.90
2018-06-12T21:44:37.233Z,99.90
2018-06-12T21:50:42.872Z,99.90
2018-06-12T21:56:48.551Z,99.90
2018-06-12T22:02:54.680Z,99.90
2018-06-12T22:09:00.345Z,99.90
2018-06-12T22:15:06.038Z,99.90
2018-06-12T22:21:12.128Z,99.90
2018-06-12T22:27:17.802Z,99.90
2018-06-12T22:33:23.736Z,99.90
2018-06-12T22:39:29.408Z,99.90
2018-06-12T22:45:35.103Z,99.90
2018-06-12T22:51:40.776Z,99.90
2018-06-12T22:57:46.526Z,99.90
2018-06-12T23:03:54.215Z,99.90
2018-06-12T23:09:59.916Z,99.90
2018-06-12T23:16:05.616Z,99.90
2018-06-12T23:22:11.548Z,99.90
2018-06-12T23:28:17.236Z,99.90
2018-06-12T23:34:25.210Z,99.90
2018-06-12T23:40:31.015Z,99.90
2018-06-12T23:46:36.840Z,99.90
2018-06-12T23:52:42.866Z,99.90
2018-06-12T23:58:48.808Z,99.90
